sensor_id;sensor_type;location;lat;lon;timestamp;pressure;altitude;pressure_sealevel;temperature;humidity
69784;BME280;57054;51.978;4.498;2023-01-16T00:01:09;99513.00;;;5.52;92.90
69784;BME280;57054;51.978;4.498;2023-01-16T00:03:34;99520.78;;;5.52;92.68
69784;BME280;57054;51.978;4.498;2023-01-16T00:05:59;99519.97;;;5.52;92.78
69784;BME280;57054;51.978;4.498;2023-01-16T00:08:24;99503.59;;;5.50;92.50
69784;BME280;57054;51.978;4.498;2023-01-16T00:10:50;99500.13;;;5.49;92.56
69784;BME280;57054;51.978;4.498;2023-01-16T00:13:15;99488.06;;;5.48;92.59
69784;BME280;57054;51.978;4.498;2023-01-16T00:15:44;99487.25;;;5.48;92.79
69784;BME280;57054;51.978;4.498;2023-01-16T00:18:10;99482.09;;;5.46;92.85
69784;BME280;57054;51.978;4.498;2023-01-16T00:20:35;99479.47;;;5.48;92.96
69784;BME280;57054;51.978;4.498;2023-01-16T00:23:00;99485.53;;;5.47;93.16
69784;BME280;57054;51.978;4.498;2023-01-16T00:25:26;99475.16;;;5.47;93.20
69784;BME280;57054;51.978;4.498;2023-01-16T00:27:51;99478.59;;;5.47;93.24
69784;BME280;57054;51.978;4.498;2023-01-16T00:30:16;99476.00;;;5.47;93.20
69784;BME280;57054;51.978;4.498;2023-01-16T00:32:42;99474.25;;;5.48;93.31
69784;BME280;57054;51.978;4.498;2023-01-16T00:35:07;99471.72;;;5.46;93.19
69784;BME280;57054;51.978;4.498;2023-01-16T00:37:32;99469.97;;;5.47;92.97
69784;BME280;57054;51.978;4.498;2023-01-16T00:39:58;99465.69;;;5.46;93.04
69784;BME280;57054;51.978;4.498;2023-01-16T00:42:23;99450.19;;;5.44;92.97
69784;BME280;57054;51.978;4.498;2023-01-16T00:44:48;99452.72;;;5.46;93.05
69784;BME280;57054;51.978;4.498;2023-01-16T00:47:13;99444.13;;;5.44;93.02
69784;BME280;57054;51.978;4.498;2023-01-16T00:49:39;99434.66;;;5.43;92.93
69784;BME280;57054;51.978;4.498;2023-01-16T00:52:04;99429.47;;;5.43;92.92
69784;BME280;57054;51.978;4.498;2023-01-16T00:54:30;99422.56;;;5.42;93.12
69784;BME280;57054;51.978;4.498;2023-01-16T00:56:55;99417.38;;;5.42;93.00
69784;BME280;57054;51.978;4.498;2023-01-16T00:59:20;99415.72;;;5.41;93.22
69784;BME280;57054;51.978;4.498;2023-01-16T01:01:45;99406.22;;;5.39;93.27
69784;BME280;57054;51.978;4.498;2023-01-16T01:04:11;99397.53;;;5.41;93.25
69784;BME280;57054;51.978;4.498;2023-01-16T01:06:37;99395.00;;;5.39;93.35
69784;BME280;57054;51.978;4.498;2023-01-16T01:09:02;99382.91;;;5.38;93.52
69784;BME280;57054;51.978;4.498;2023-01-16T01:11:28;99384.59;;;5.39;93.68
69784;BME280;57054;51.978;4.498;2023-01-16T01:13:53;99377.72;;;5.38;93.93
69784;BME280;57054;51.978;4.498;2023-01-16T01:16:18;99376.81;;;5.39;93.95
69784;BME280;57054;51.978;4.498;2023-01-16T01:18:44;99370.78;;;5.38;93.91
69784;BME280;57054;51.978;4.498;2023-01-16T01:21:09;99356.06;;;5.39;94.11
69784;BME280;57054;51.978;4.498;2023-01-16T01:23:34;99361.25;;;5.39;94.10
69784;BME280;57054;51.978;4.498;2023-01-16T01:26:14;99346.56;;;5.38;94.13
69784;BME280;57054;51.978;4.498;2023-01-16T01:28:40;99341.38;;;5.38;93.83
69784;BME280;57054;51.978;4.498;2023-01-16T01:31:06;99330.97;;;5.38;93.93
69784;BME280;57054;51.978;4.498;2023-01-16T01:33:31;99327.56;;;5.37;94.04
69784;BME280;57054;51.978;4.498;2023-01-16T01:35:57;99326.72;;;5.37;94.09
69784;BME280;57054;51.978;4.498;2023-01-16T01:38:22;99324.13;;;5.37;93.97
69784;BME280;57054;51.978;4.498;2023-01-16T01:40:47;99315.47;;;5.36;94.07
69784;BME280;57054;51.978;4.498;2023-01-16T01:43:13;99302.50;;;5.36;94.03
69784;BME280;57054;51.978;4.498;2023-01-16T01:45:39;99286.06;;;5.36;93.79
69784;BME280;57054;51.978;4.498;2023-01-16T01:50:42;99290.38;;;5.37;94.29
69784;BME280;57054;51.978;4.498;2023-01-16T01:53:14;99278.28;;;5.36;94.37
69784;BME280;57054;51.978;4.498;2023-01-16T01:55:40;99278.28;;;5.36;94.45
69784;BME280;57054;51.978;4.498;2023-01-16T01:58:07;99276.63;;;5.35;94.42
69784;BME280;57054;51.978;4.498;2023-01-16T02:00:32;99267.06;;;5.35;94.37
69784;BME280;57054;51.978;4.498;2023-01-16T02:05:24;99263.63;;;5.35;94.58
69784;BME280;57054;51.978;4.498;2023-01-16T02:07:51;99265.31;;;5.36;94.92
69784;BME280;57054;51.978;4.498;2023-01-16T02:10:35;99255.84;;;5.35;94.93
69784;BME280;57054;51.978;4.498;2023-01-16T02:13:01;99249.78;;;5.34;94.83
69784;BME280;57054;51.978;4.498;2023-01-16T02:15:27;99253.25;;;5.35;94.88
69784;BME280;57054;51.978;4.498;2023-01-16T02:17:53;99246.31;;;5.35;94.75
69784;BME280;57054;51.978;4.498;2023-01-16T02:23:29;99240.34;;;5.33;94.85
69784;BME280;57054;51.978;4.498;2023-01-16T02:36:33;99208.31;;;5.33;95.14
69784;BME280;57054;51.978;4.498;2023-01-16T02:41:49;99188.41;;;5.33;95.19
69784;BME280;57054;51.978;4.498;2023-01-16T02:52:13;99163.28;;;5.34;95.10
69784;BME280;57054;51.978;4.498;2023-01-16T02:54:45;99147.72;;;5.34;95.17
69784;BME280;57054;51.978;4.498;2023-01-16T02:57:15;99132.97;;;5.34;95.49
69784;BME280;57054;51.978;4.498;2023-01-16T02:59:42;99132.16;;;5.34;95.67
69784;BME280;57054;51.978;4.498;2023-01-16T03:02:08;99123.53;;;5.33;95.76
69784;BME280;57054;51.978;4.498;2023-01-16T03:04:38;99125.25;;;5.33;95.68
69784;BME280;57054;51.978;4.498;2023-01-16T03:12:14;99119.22;;;5.32;95.80
69784;BME280;57054;51.978;4.498;2023-01-16T03:17:57;99110.63;;;5.32;95.87
69784;BME280;57054;51.978;4.498;2023-01-16T03:20:09;99091.59;;;5.31;95.91
69784;BME280;57054;51.978;4.498;2023-01-16T03:22:46;99088.16;;;5.31;95.95
69784;BME280;57054;51.978;4.498;2023-01-16T03:30:54;99069.97;;;5.31;96.25
69784;BME280;57054;51.978;4.498;2023-01-16T03:33:29;99060.47;;;5.31;96.03
69784;BME280;57054;51.978;4.498;2023-01-16T03:35:58;99054.41;;;5.31;96.31
69784;BME280;57054;51.978;4.498;2023-01-16T03:38:26;99044.94;;;5.30;96.21
69784;BME280;57054;51.978;4.498;2023-01-16T03:40:52;99038.81;;;5.31;96.24
69784;BME280;57054;51.978;4.498;2023-01-16T03:43:20;99029.38;;;5.30;96.17
69784;BME280;57054;51.978;4.498;2023-01-16T03:46:31;99025.91;;;5.29;96.26
69784;BME280;57054;51.978;4.498;2023-01-16T03:48:38;99006.09;;;5.28;96.36
69784;BME280;57054;51.978;4.498;2023-01-16T03:51:07;99000.91;;;5.28;96.22
69784;BME280;57054;51.978;4.498;2023-01-16T03:53:38;98983.63;;;5.27;96.31
69784;BME280;57054;51.978;4.498;2023-01-16T03:58:35;98971.50;;;5.28;96.48
69784;BME280;57054;51.978;4.498;2023-01-16T04:01:09;98960.19;;;5.29;96.52
69784;BME280;57054;51.978;4.498;2023-01-16T04:03:39;98948.16;;;5.28;96.57
69784;BME280;57054;51.978;4.498;2023-01-16T04:06:11;98944.63;;;5.29;96.55
69784;BME280;57054;51.978;4.498;2023-01-16T04:08:39;98933.41;;;5.28;96.72
69784;BME280;57054;51.978;4.498;2023-01-16T04:11:06;98929.88;;;5.29;96.58
69784;BME280;57054;51.978;4.498;2023-01-16T04:13:33;98922.19;;;5.28;96.73
69784;BME280;57054;51.978;4.498;2023-01-16T04:16:00;98917.84;;;5.28;96.74
69784;BME280;57054;51.978;4.498;2023-01-16T04:18:28;98918.66;;;5.29;96.88
69784;BME280;57054;51.978;4.498;2023-01-16T04:20:55;98904.03;;;5.28;96.71
69784;BME280;57054;51.978;4.498;2023-01-16T04:23:20;98893.66;;;5.28;96.65
69784;BME280;57054;51.978;4.498;2023-01-16T04:25:46;98876.38;;;5.27;96.96
69784;BME280;57054;51.978;4.498;2023-01-16T04:28:11;98873.72;;;5.28;96.81
69784;BME280;57054;51.978;4.498;2023-01-16T04:30:36;98865.09;;;5.28;96.74
69784;BME280;57054;51.978;4.498;2023-01-16T04:33:02;98855.63;;;5.27;96.84
69784;BME280;57054;51.978;4.498;2023-01-16T04:35:27;98859.97;;;5.26;96.82
69784;BME280;57054;51.978;4.498;2023-01-16T04:37:53;98847.00;;;5.26;96.92
69784;BME280;57054;51.978;4.498;2023-01-16T04:40:18;98840.13;;;5.25;96.85
69784;BME280;57054;51.978;4.498;2023-01-16T04:42:43;98831.50;;;5.25;96.85
69784;BME280;57054;51.978;4.498;2023-01-16T04:45:08;98824.63;;;5.24;96.72
69784;BME280;57054;51.978;4.498;2023-01-16T04:47:34;98807.47;;;5.21;96.09
69784;BME280;57054;51.978;4.498;2023-01-16T04:49:59;98802.28;;;5.21;96.23
69784;BME280;57054;51.978;4.498;2023-01-16T04:52:24;98784.19;;;5.19;96.24
69784;BME280;57054;51.978;4.498;2023-01-16T04:54:50;98780.06;;;5.15;95.47
69784;BME280;57054;51.978;4.498;2023-01-16T04:57:15;98769.75;;;5.14;95.05
69784;BME280;57054;51.978;4.498;2023-01-16T04:59:40;98765.47;;;5.13;95.42
69784;BME280;57054;51.978;4.498;2023-01-16T05:02:05;98754.28;;;5.12;95.72
69784;BME280;57054;51.978;4.498;2023-01-16T05:04:31;98737.03;;;5.11;95.46
69784;BME280;57054;51.978;4.498;2023-01-16T05:06:56;98738.16;;;5.06;94.15
69784;BME280;57054;51.978;4.498;2023-01-16T05:09:21;98722.84;;;5.01;93.84
69784;BME280;57054;51.978;4.498;2023-01-16T05:11:47;98713.38;;;5.00;94.29
69784;BME280;57054;51.978;4.498;2023-01-16T05:14:12;98706.59;;;4.97;94.29
69784;BME280;57054;51.978;4.498;2023-01-16T05:16:38;98703.19;;;4.97;94.37
69784;BME280;57054;51.978;4.498;2023-01-16T05:19:03;98686.00;;;4.94;94.65
69784;BME280;57054;51.978;4.498;2023-01-16T05:21:29;98682.72;;;4.91;94.05
69784;BME280;57054;51.978;4.498;2023-01-16T05:23:54;98675.03;;;4.89;94.41
69784;BME280;57054;51.978;4.498;2023-01-16T05:26:19;98663.13;;;4.85;94.48
69784;BME280;57054;51.978;4.498;2023-01-16T05:28:45;98657.28;;;4.81;94.35
69784;BME280;57054;51.978;4.498;2023-01-16T05:31:10;98647.91;;;4.79;94.30
69784;BME280;57054;51.978;4.498;2023-01-16T05:33:35;98645.41;;;4.77;94.52
69784;BME280;57054;51.978;4.498;2023-01-16T05:36:01;98640.97;;;4.79;94.94
69784;BME280;57054;51.978;4.498;2023-01-16T05:38:26;98630.75;;;4.76;94.96
69784;BME280;57054;51.978;4.498;2023-01-16T05:40:51;98622.19;;;4.74;94.73
69784;BME280;57054;51.978;4.498;2023-01-16T05:43:16;98613.66;;;4.72;94.78
69784;BME280;57054;51.978;4.498;2023-01-16T05:45:42;98612.16;;;4.68;94.53
69784;BME280;57054;51.978;4.498;2023-01-16T05:48:07;98602.69;;;4.67;95.20
69784;BME280;57054;51.978;4.498;2023-01-16T05:50:32;98588.91;;;4.67;95.52
69784;BME280;57054;51.978;4.498;2023-01-16T05:52:58;98593.25;;;4.66;95.84
69784;BME280;57054;51.978;4.498;2023-01-16T05:55:23;98588.00;;;4.68;95.97
69784;BME280;57054;51.978;4.498;2023-01-16T05:57:49;98581.88;;;4.69;96.03
69784;BME280;57054;51.978;4.498;2023-01-16T06:00:14;98570.53;;;4.71;96.41
69784;BME280;57054;51.978;4.498;2023-01-16T06:02:40;98581.66;;;4.73;96.41
69784;BME280;57054;51.978;4.498;2023-01-16T06:05:05;98563.50;;;4.73;96.54
69784;BME280;57054;51.978;4.498;2023-01-16T06:07:30;98560.03;;;4.73;96.39
69784;BME280;57054;51.978;4.498;2023-01-16T06:09:56;98555.72;;;4.73;96.63
69784;BME280;57054;51.978;4.498;2023-01-16T06:12:21;98540.25;;;4.72;96.39
69784;BME280;57054;51.978;4.498;2023-01-16T06:14:46;98540.41;;;4.69;96.23
69784;BME280;57054;51.978;4.498;2023-01-16T06:17:12;98538.63;;;4.69;96.33
69784;BME280;57054;51.978;4.498;2023-01-16T06:19:41;98520.41;;;4.71;96.93
69784;BME280;57054;51.978;4.498;2023-01-16T06:22:06;98515.13;;;4.72;97.13
69784;BME280;57054;51.978;4.498;2023-01-16T06:24:31;98516.81;;;4.73;97.39
69784;BME280;57054;51.978;4.498;2023-01-16T06:26:57;98504.59;;;4.75;97.32
69784;BME280;57054;51.978;4.498;2023-01-16T06:29:22;98498.50;;;4.76;97.21
69784;BME280;57054;51.978;4.498;2023-01-16T06:31:48;98488.03;;;4.78;97.89
69784;BME280;57054;51.978;4.498;2023-01-16T06:34:13;98478.41;;;4.80;97.59
69784;BME280;57054;51.978;4.498;2023-01-16T06:36:39;98467.97;;;4.81;97.60
69784;BME280;57054;51.978;4.498;2023-01-16T06:39:06;98462.78;;;4.81;97.59
69784;BME280;57054;51.978;4.498;2023-01-16T06:41:31;98458.44;;;4.82;97.49
69784;BME280;57054;51.978;4.498;2023-01-16T06:43:56;98445.47;;;4.82;97.83
69784;BME280;57054;51.978;4.498;2023-01-16T06:46:22;98443.72;;;4.83;97.60
69784;BME280;57054;51.978;4.498;2023-01-16T06:48:47;98426.47;;;4.81;97.63
69784;BME280;57054;51.978;4.498;2023-01-16T06:51:12;98423.03;;;4.81;97.57
69784;BME280;57054;51.978;4.498;2023-01-16T06:53:37;98407.72;;;4.76;97.41
69784;BME280;57054;51.978;4.498;2023-01-16T06:56:03;98404.38;;;4.74;97.81
69784;BME280;57054;51.978;4.498;2023-01-16T06:58:28;98404.38;;;4.74;98.05
69784;BME280;57054;51.978;4.498;2023-01-16T07:00:53;98388.16;;;4.71;98.12
69784;BME280;57054;51.978;4.498;2023-01-16T07:03:19;98370.09;;;4.69;98.56
69784;BME280;57054;51.978;4.498;2023-01-16T07:05:46;98358.97;;;4.67;99.04
69784;BME280;57054;51.978;4.498;2023-01-16T07:08:11;98358.22;;;4.65;99.04
69784;BME280;57054;51.978;4.498;2023-01-16T07:10:36;98348.06;;;4.62;98.91
69784;BME280;57054;51.978;4.498;2023-01-16T07:13:02;98339.63;;;4.58;99.22
69784;BME280;57054;51.978;4.498;2023-01-16T07:15:27;98322.63;;;4.53;99.78
69784;BME280;57054;51.978;4.498;2023-01-16T07:18:12;98313.19;;;4.52;99.93
69784;BME280;57054;51.978;4.498;2023-01-16T07:20:57;98302.91;;;4.50;100.00
69784;BME280;57054;51.978;4.498;2023-01-16T07:23:45;98289.44;;;4.43;100.00
69784;BME280;57054;51.978;4.498;2023-01-16T07:26:12;98286.09;;;4.41;100.00
69784;BME280;57054;51.978;4.498;2023-01-16T07:28:39;98276.84;;;4.37;100.00
69784;BME280;57054;51.978;4.498;2023-01-16T07:31:05;98268.50;;;4.32;100.00
69784;BME280;57054;51.978;4.498;2023-01-16T07:33:31;98265.16;;;4.30;100.00
69784;BME280;57054;51.978;4.498;2023-01-16T07:35:57;98254.28;;;4.23;100.00
69784;BME280;57054;51.978;4.498;2023-01-16T07:38:22;98244.13;;;4.20;100.00
69784;BME280;57054;51.978;4.498;2023-01-16T07:40:47;98249.38;;;4.19;100.00
69784;BME280;57054;51.978;4.498;2023-01-16T07:43:14;98234.75;;;4.18;100.00
69784;BME280;57054;51.978;4.498;2023-01-16T07:45:40;98229.75;;;4.15;100.00
69784;BME280;57054;51.978;4.498;2023-01-16T07:48:05;98227.25;;;4.13;100.00
69784;BME280;57054;51.978;4.498;2023-01-16T07:50:30;98217.72;;;4.14;100.00
69784;BME280;57054;51.978;4.498;2023-01-16T07:52:56;98216.13;;;4.11;100.00
69784;BME280;57054;51.978;4.498;2023-01-16T07:55:21;98210.97;;;4.11;100.00
69784;BME280;57054;51.978;4.498;2023-01-16T07:57:48;98210.97;;;4.11;100.00
69784;BME280;57054;51.978;4.498;2023-01-16T08:00:13;98200.59;;;4.11;100.00
69784;BME280;57054;51.978;4.498;2023-01-16T08:02:39;98189.22;;;4.14;100.00
69784;BME280;57054;51.978;4.498;2023-01-16T08:05:04;98189.97;;;4.16;100.00
69784;BME280;57054;51.978;4.498;2023-01-16T08:07:30;98188.19;;;4.16;100.00
69784;BME280;57054;51.978;4.498;2023-01-16T08:09:55;98184.63;;;4.19;100.00
69784;BME280;57054;51.978;4.498;2023-01-16T08:12:20;98170.56;;;4.23;100.00
69784;BME280;57054;51.978;4.498;2023-01-16T08:14:46;98174.56;;;4.29;100.00
69784;BME280;57054;51.978;4.498;2023-01-16T08:17:11;98176.69;;;4.36;100.00
69784;BME280;57054;51.978;4.498;2023-01-16T08:19:36;98159.31;;;4.38;100.00
69784;BME280;57054;51.978;4.498;2023-01-16T08:22:01;98150.53;;;4.41;100.00
69784;BME280;57054;51.978;4.498;2023-01-16T08:24:27;98154.78;;;4.42;100.00
69784;BME280;57054;51.978;4.498;2023-01-16T08:26:53;98147.66;;;4.46;100.00
69784;BME280;57054;51.978;4.498;2023-01-16T08:29:18;98147.41;;;4.50;100.00
69784;BME280;57054;51.978;4.498;2023-01-16T08:31:43;98145.47;;;4.54;100.00
69784;BME280;57054;51.978;4.498;2023-01-16T08:34:08;98133.25;;;4.56;100.00
69784;BME280;57054;51.978;4.498;2023-01-16T08:36:34;98132.25;;;4.58;100.00
69784;BME280;57054;51.978;4.498;2023-01-16T08:38:59;98131.13;;;4.63;100.00
69784;BME280;57054;51.978;4.498;2023-01-16T08:41:25;98121.50;;;4.65;100.00
69784;BME280;57054;51.978;4.498;2023-01-16T08:44:08;98113.63;;;4.66;100.00
69784;BME280;57054;51.978;4.498;2023-01-16T08:46:54;98100.47;;;4.69;100.00
69784;BME280;57054;51.978;4.498;2023-01-16T08:49:39;98097.69;;;4.72;100.00
69784;BME280;57054;51.978;4.498;2023-01-16T08:52:23;98102.69;;;4.75;100.00
69784;BME280;57054;51.978;4.498;2023-01-16T08:54:49;98093.25;;;4.74;100.00
69784;BME280;57054;51.978;4.498;2023-01-16T08:57:14;98091.59;;;4.73;100.00
69784;BME280;57054;51.978;4.498;2023-01-16T08:59:39;98082.31;;;4.69;100.00
69784;BME280;57054;51.978;4.498;2023-01-16T09:02:04;98078.81;;;4.70;100.00
69784;BME280;57054;51.978;4.498;2023-01-16T09:04:33;98076.94;;;4.72;100.00
69784;BME280;57054;51.978;4.498;2023-01-16T09:06:59;98070.00;;;4.73;100.00
69784;BME280;57054;51.978;4.498;2023-01-16T09:09:24;98062.13;;;4.74;100.00
69784;BME280;57054;51.978;4.498;2023-01-16T09:11:54;98061.13;;;4.77;100.00
69784;BME280;57054;51.978;4.498;2023-01-16T09:14:37;98062.59;;;4.81;100.00
69784;BME280;57054;51.978;4.498;2023-01-16T09:17:03;98063.34;;;4.83;100.00
69784;BME280;57054;51.978;4.498;2023-01-16T09:19:28;98056.19;;;4.87;100.00
69784;BME280;57054;51.978;4.498;2023-01-16T09:21:53;98046.56;;;4.89;100.00
69784;BME280;57054;51.978;4.498;2023-01-16T09:24:18;98047.28;;;4.91;100.00
69784;BME280;57054;51.978;4.498;2023-01-16T09:26:44;98046.28;;;4.93;100.00
69784;BME280;57054;51.978;4.498;2023-01-16T09:29:09;98042.66;;;4.96;100.00
69784;BME280;57054;51.978;4.498;2023-01-16T09:31:34;98041.66;;;4.98;100.00
69784;BME280;57054;51.978;4.498;2023-01-16T09:33:59;98029.41;;;5.00;100.00
69784;BME280;57054;51.978;4.498;2023-01-16T09:36:25;98025.78;;;5.03;100.00
69784;BME280;57054;51.978;4.498;2023-01-16T09:38:50;98029.19;;;5.04;100.00
69784;BME280;57054;51.978;4.498;2023-01-16T09:41:16;98021.34;;;5.05;100.00
69784;BME280;57054;51.978;4.498;2023-01-16T09:44:02;98019.47;;;5.07;100.00
69784;BME280;57054;51.978;4.498;2023-01-16T09:46:28;98007.34;;;5.08;100.00
69784;BME280;57054;51.978;4.498;2023-01-16T09:49:06;98010.78;;;5.08;100.00
69784;BME280;57054;51.978;4.498;2023-01-16T09:51:39;98011.59;;;5.09;100.00
69784;BME280;57054;51.978;4.498;2023-01-16T09:54:22;98011.50;;;5.10;100.00
69784;BME280;57054;51.978;4.498;2023-01-16T09:57:09;98006.22;;;5.12;100.00
69784;BME280;57054;51.978;4.498;2023-01-16T09:59:55;97996.56;;;5.14;100.00
69784;BME280;57054;51.978;4.498;2023-01-16T10:02:26;97993.88;;;5.15;100.00
69784;BME280;57054;51.978;4.498;2023-01-16T10:04:52;97995.53;;;5.16;100.00
69784;BME280;57054;51.978;4.498;2023-01-16T10:12:50;97977.28;;;5.18;100.00
69784;BME280;57054;51.978;4.498;2023-01-16T10:20:18;97971.81;;;5.23;100.00
69784;BME280;57054;51.978;4.498;2023-01-16T10:28:41;97957.69;;;5.27;100.00
69784;BME280;57054;51.978;4.498;2023-01-16T10:31:13;97953.22;;;5.29;100.00
69784;BME280;57054;51.978;4.498;2023-01-16T10:36:18;97941.84;;;5.31;100.00
69784;BME280;57054;51.978;4.498;2023-01-16T10:38:48;97946.09;;;5.32;100.00
69784;BME280;57054;51.978;4.498;2023-01-16T10:41:41;97934.78;;;5.33;100.00
69784;BME280;57054;51.978;4.498;2023-01-16T10:44:34;97929.59;;;5.33;100.00
69784;BME280;57054;51.978;4.498;2023-01-16T10:47:22;97919.13;;;5.35;100.00
69784;BME280;57054;51.978;4.498;2023-01-16T10:50:07;97922.44;;;5.37;100.00
69784;BME280;57054;51.978;4.498;2023-01-16T10:52:32;97916.41;;;5.36;100.00
69784;BME280;57054;51.978;4.498;2023-01-16T10:54:58;97914.66;;;5.37;100.00
69784;BME280;57054;51.978;4.498;2023-01-16T10:57:24;97911.97;;;5.38;100.00
69784;BME280;57054;51.978;4.498;2023-01-16T10:59:51;97919.63;;;5.40;100.00
69784;BME280;57054;51.978;4.498;2023-01-16T11:02:27;97912.69;;;5.41;100.00
69784;BME280;57054;51.978;4.498;2023-01-16T11:04:52;97907.41;;;5.42;100.00
69784;BME280;57054;51.978;4.498;2023-01-16T11:07:19;97898.66;;;5.43;100.00
69784;BME280;57054;51.978;4.498;2023-01-16T11:09:45;97900.34;;;5.44;100.00
69784;BME280;57054;51.978;4.498;2023-01-16T11:12:11;97898.47;;;5.46;100.00
69784;BME280;57054;51.978;4.498;2023-01-16T11:14:58;97890.69;;;5.46;100.00
69784;BME280;57054;51.978;4.498;2023-01-16T11:17:43;97888.81;;;5.48;100.00
69784;BME280;57054;51.978;4.498;2023-01-16T11:20:35;97880.06;;;5.49;100.00
69784;BME280;57054;51.978;4.498;2023-01-16T11:23:17;97877.38;;;5.51;100.00
69784;BME280;57054;51.978;4.498;2023-01-16T11:25:43;97866.91;;;5.52;100.00
69784;BME280;57054;51.978;4.498;2023-01-16T11:28:11;97865.03;;;5.54;100.00
69784;BME280;57054;51.978;4.498;2023-01-16T11:30:39;97866.69;;;5.55;100.00
69784;BME280;57054;51.978;4.498;2023-01-16T11:33:05;97857.03;;;5.57;100.00
69784;BME280;57054;51.978;4.498;2023-01-16T11:35:36;97856.94;;;5.59;100.00
69784;BME280;57054;51.978;4.498;2023-01-16T11:38:02;97855.06;;;5.61;100.00
69784;BME280;57054;51.978;4.498;2023-01-16T11:40:28;97850.59;;;5.63;100.00
69784;BME280;57054;51.978;4.498;2023-01-16T11:42:55;97853.91;;;5.65;100.00
69784;BME280;57054;51.978;4.498;2023-01-16T11:45:40;97849.44;;;5.67;100.00
69784;BME280;57054;51.978;4.498;2023-01-16T11:48:25;97851.84;;;5.70;100.00
69784;BME280;57054;51.978;4.498;2023-01-16T11:50:55;97839.69;;;5.71;100.00
69784;BME280;57054;51.978;4.498;2023-01-16T11:53:20;97838.75;;;5.72;100.00
69784;BME280;57054;51.978;4.498;2023-01-16T11:58:21;97830.75;;;5.75;100.00
69784;BME280;57054;51.978;4.498;2023-01-16T12:00:53;97831.50;;;5.77;100.00
69784;BME280;57054;51.978;4.498;2023-01-16T12:03:45;97824.41;;;5.79;100.00
69784;BME280;57054;51.978;4.498;2023-01-16T12:09:00;97824.09;;;5.84;100.00
69784;BME280;57054;51.978;4.498;2023-01-16T12:14:17;97814.31;;;5.87;100.00
69784;BME280;57054;51.978;4.498;2023-01-16T12:21:48;97801.13;;;5.90;100.00
69784;BME280;57054;51.978;4.498;2023-01-16T12:29:42;97784.31;;;5.96;100.00
69784;BME280;57054;51.978;4.498;2023-01-16T12:32:25;97790.31;;;5.96;100.00
69784;BME280;57054;51.978;4.498;2023-01-16T12:34:58;97780.69;;;5.99;100.00
69784;BME280;57054;51.978;4.498;2023-01-16T12:40:20;97776.31;;;5.99;100.00
69784;BME280;57054;51.978;4.498;2023-01-16T12:42:53;97776.19;;;6.01;100.00
69784;BME280;57054;51.978;4.498;2023-01-16T12:45:44;97769.13;;;6.03;100.00
69784;BME280;57054;51.978;4.498;2023-01-16T12:58:40;97756.53;;;6.09;100.00
69784;BME280;57054;51.978;4.498;2023-01-16T13:01:12;97759.00;;;6.11;100.00
69784;BME280;57054;51.978;4.498;2023-01-16T13:06:09;97745.09;;;6.12;100.00
69784;BME280;57054;51.978;4.498;2023-01-16T13:08:38;97743.31;;;6.12;100.00
69784;BME280;57054;51.978;4.498;2023-01-16T13:11:21;97745.78;;;6.14;100.00
69784;BME280;57054;51.978;4.498;2023-01-16T13:14:08;97740.59;;;6.14;100.00
69784;BME280;57054;51.978;4.498;2023-01-16T13:21:52;97730.91;;;6.16;100.00
69784;BME280;57054;51.978;4.498;2023-01-16T13:24:33;97728.31;;;6.16;100.00
69784;BME280;57054;51.978;4.498;2023-01-16T13:27:01;97725.63;;;6.18;100.00
69784;BME280;57054;51.978;4.498;2023-01-16T13:29:35;97726.44;;;6.18;100.00
69784;BME280;57054;51.978;4.498;2023-01-16T13:32:15;97724.69;;;6.19;100.00
69784;BME280;57054;51.978;4.498;2023-01-16T13:34:44;97727.28;;;6.19;100.00
69784;BME280;57054;51.978;4.498;2023-01-16T13:42:09;97718.44;;;6.21;100.00
69784;BME280;57054;51.978;4.498;2023-01-16T13:44:37;97717.50;;;6.22;100.00
69784;BME280;57054;51.978;4.498;2023-01-16T13:47:26;97723.53;;;6.23;100.00
69784;BME280;57054;51.978;4.498;2023-01-16T13:49:54;97720.91;;;6.23;100.00
69784;BME280;57054;51.978;4.498;2023-01-16T13:52:21;97725.16;;;6.24;100.00
69784;BME280;57054;51.978;4.498;2023-01-16T13:54:47;97726.00;;;6.24;100.00
69784;BME280;57054;51.978;4.498;2023-01-16T13:57:20;97713.84;;;6.25;100.00
69784;BME280;57054;51.978;4.498;2023-01-16T14:13:13;97711.84;;;6.28;100.00
69784;BME280;57054;51.978;4.498;2023-01-16T14:15:55;97702.28;;;6.29;100.00
69784;BME280;57054;51.978;4.498;2023-01-16T14:21:20;97707.47;;;6.29;100.00
69784;BME280;57054;51.978;4.498;2023-01-16T14:23:48;97708.19;;;6.31;100.00
69784;BME280;57054;51.978;4.498;2023-01-16T14:28:54;97709.97;;;6.30;100.00
69784;BME280;57054;51.978;4.498;2023-01-16T14:31:23;97707.25;;;6.32;100.00
69784;BME280;57054;51.978;4.498;2023-01-16T14:33:49;97709.03;;;6.31;100.00
69784;BME280;57054;51.978;4.498;2023-01-16T14:36:15;97718.47;;;6.32;100.00
69784;BME280;57054;51.978;4.498;2023-01-16T14:38:44;97709.84;;;6.32;100.00
69784;BME280;57054;51.978;4.498;2023-01-16T14:41:11;97713.28;;;6.32;100.00
69784;BME280;57054;51.978;4.498;2023-01-16T14:44:17;97715.06;;;6.32;100.00
69784;BME280;57054;51.978;4.498;2023-01-16T14:58:06;97717.66;;;6.32;100.00
69784;BME280;57054;51.978;4.498;2023-01-16T15:00:32;97716.84;;;6.31;100.00
69784;BME280;57054;51.978;4.498;2023-01-16T15:03:04;97716.84;;;6.31;100.00
69784;BME280;57054;51.978;4.498;2023-01-16T15:05:39;97721.31;;;6.29;100.00
69784;BME280;57054;51.978;4.498;2023-01-16T15:08:15;97726.50;;;6.29;100.00
69784;BME280;57054;51.978;4.498;2023-01-16T15:10:41;97736.06;;;6.29;100.00
69784;BME280;57054;51.978;4.498;2023-01-16T15:15:53;97741.91;;;6.20;100.00
69784;BME280;57054;51.978;4.498;2023-01-16T15:18:21;97747.47;;;6.15;100.00
69784;BME280;57054;51.978;4.498;2023-01-16T15:21:12;97738.56;;;6.06;99.41
69784;BME280;57054;51.978;4.498;2023-01-16T15:23:56;97745.84;;;6.01;99.00
69784;BME280;57054;51.978;4.498;2023-01-16T15:28:52;97746.91;;;5.99;99.98
69784;BME280;57054;51.978;4.498;2023-01-16T15:33:59;97745.66;;;5.91;99.67
69784;BME280;57054;51.978;4.498;2023-01-16T15:39:21;97750.13;;;5.76;97.96
69784;BME280;57054;51.978;4.498;2023-01-16T15:41:48;97763.97;;;5.77;99.26
69784;BME280;57054;51.978;4.498;2023-01-16T15:44:36;97757.94;;;5.76;99.71